Time;durP1;ratioP1;P1;durP2;ratioP2;P2;SDS_P1;SDS_P2;PMS_P1;PMS_P2;Temp;Humidity;BMP_temperature;BMP_pressure;BME280_temperature;BME280_humidity;BME280_pressure;Samples;Min_cycle;Max_cycle;Signal;HPM_P1;HPM_P2
2022/03/03 00:01:10;;;;;;;;;;;8.60;86.90;;;;;;4993855;28;20004;-62
2022/03/03 00:03:36;;;;;;;;;;;8.60;86.80;;;;;;4993148;28;19914;-63
2022/03/03 00:06:01;;;;;;;;;;;8.60;86.80;;;;;;5008045;28;19910;-63
2022/03/03 00:08:27;;;;;;;;;;;8.60;86.90;;;;;;4993052;28;19921;-64
2022/03/03 00:10:52;;;;;;;;;;;8.60;87.20;;;;;;4993622;28;19921;-62
2022/03/03 00:13:18;;;;;;;;;;;8.60;86.60;;;;;;4992697;28;19933;-61
2022/03/03 00:15:44;;;;;;;;;;;8.60;89.80;;;;;;4993389;28;20007;-63
2022/03/03 00:18:09;;;;;;;;;;;8.50;90.10;;;;;;4993087;28;20394;-62
2022/03/03 00:20:35;;;;;;;;;;;8.60;87.70;;;;;;4993029;28;19914;-62
2022/03/03 00:23:00;;;;;;;;;;;8.60;87.50;;;;;;4992292;28;19910;-62
2022/03/03 00:25:26;;;;;;;;;;;8.60;87.60;;;;;;4992643;28;19972;-63
2022/03/03 00:27:52;;;;;;;;;;;8.60;87.50;;;;;;4992351;28;19997;-61
2022/03/03 00:30:17;;;;;;;;;;;8.60;87.50;;;;;;4992958;28;20009;-61
2022/03/03 00:32:43;;;;;;;;;;;8.60;88.60;;;;;;4992540;28;19928;-63
2022/03/03 00:35:10;;;;;;;;;;;8.60;88.10;;;;;;4993070;28;19941;-62
2022/03/03 00:37:36;;;;;;;;;;;8.60;87.30;;;;;;4993263;28;19917;-62
2022/03/03 00:40:03;;;;;;;;;;;8.60;87.80;;;;;;4992640;28;20306;-63
2022/03/03 00:42:28;;;;;;;;;;;8.60;87.60;;;;;;4992423;28;19921;-62
2022/03/03 00:44:54;;;;;;;;;;;8.60;87.70;;;;;;4992693;28;19921;-62
2022/03/03 00:47:19;;;;;;;;;;;8.60;89.70;;;;;;4993215;28;19909;-62
2022/03/03 00:49:45;;;;;;;;;;;8.60;89.70;;;;;;4993520;28;19909;-61
2022/03/03 00:52:10;;;;;;;;;;;8.60;89.10;;;;;;4992344;28;20056;-63
2022/03/03 00:54:36;;;;;;;;;;;8.60;90.00;;;;;;4991757;28;19924;-61
2022/03/03 00:57:01;;;;;;;;;;;8.50;89.00;;;;;;4993034;28;19926;-61
2022/03/03 00:59:26;;;;;;;;;;;8.50;89.20;;;;;;4992003;28;23410;-60
2022/03/03 01:01:52;;;;;;;;;;;8.50;90.00;;;;;;4992820;28;19910;-62
2022/03/03 01:04:19;;;;;;;;;;;8.50;88.70;;;;;;4992290;28;19976;-61
2022/03/03 01:06:45;;;;;;;;;;;8.50;89.10;;;;;;4992285;28;19921;-62
2022/03/03 01:09:10;;;;;;;;;;;8.50;89.30;;;;;;4992060;28;20342;-63
2022/03/03 01:11:35;;;;;;;;;;;8.50;89.40;;;;;;4992175;28;19961;-63
2022/03/03 01:14:01;;;;;;;;;;;8.50;89.60;;;;;;4992652;28;20428;-64
2022/03/03 01:16:27;;;;;;;;;;;8.50;90.00;;;;;;4991890;28;19969;-63
2022/03/03 01:18:52;;;;;;;;;;;8.50;89.70;;;;;;4992287;28;20379;-62
2022/03/03 01:21:17;;;;;;;;;;;8.50;90.00;;;;;;4992157;28;19914;-61
2022/03/03 01:23:43;;;;;;;;;;;8.50;89.30;;;;;;4991391;28;20387;-62
2022/03/03 01:26:08;;;;;;;;;;;8.60;89.90;;;;;;4992127;28;19916;-62
2022/03/03 01:28:34;;;;;;;;;;;8.50;90.00;;;;;;4992641;28;19909;-62
2022/03/03 01:31:00;;;;;;;;;;;8.60;90.10;;;;;;4991722;28;20300;-62
2022/03/03 01:33:26;;;;;;;;;;;8.60;90.30;;;;;;4991893;28;20379;-63
2022/03/03 01:35:51;;;;;;;;;;;8.60;89.80;;;;;;4991777;28;19929;-63
2022/03/03 01:38:16;;;;;;;;;;;8.60;90.30;;;;;;4991545;28;19920;-62
2022/03/03 01:40:42;;;;;;;;;;;8.60;91.10;;;;;;4992176;28;20442;-60
2022/03/03 01:43:07;;;;;;;;;;;8.60;90.50;;;;;;4991476;28;19914;-61
2022/03/03 01:45:33;;;;;;;;;;;8.60;90.90;;;;;;4991703;28;20378;-61
2022/03/03 01:47:59;;;;;;;;;;;8.60;90.50;;;;;;4992012;28;19914;-62
2022/03/03 01:50:25;;;;;;;;;;;8.70;90.70;;;;;;4991451;28;20004;-61
2022/03/03 01:52:50;;;;;;;;;;;8.70;90.40;;;;;;4991800;28;19997;-62
2022/03/03 01:55:17;;;;;;;;;;;8.70;90.50;;;;;;4991313;28;19961;-61
2022/03/03 01:57:43;;;;;;;;;;;8.70;90.50;;;;;;4991399;28;19929;-62
2022/03/03 02:00:09;;;;;;;;;;;8.70;90.70;;;;;;4991244;28;19914;-61
2022/03/03 02:02:34;;;;;;;;;;;8.80;90.80;;;;;;4991576;28;20405;-62
2022/03/03 02:05:00;;;;;;;;;;;8.80;91.50;;;;;;4991985;28;20252;-62
2022/03/03 02:07:25;;;;;;;;;;;8.80;91.20;;;;;;4990911;28;19921;-62
2022/03/03 02:09:51;;;;;;;;;;;8.80;91.10;;;;;;4990974;28;20123;-61
2022/03/03 02:12:16;;;;;;;;;;;8.90;91.10;;;;;;4991343;28;20343;-61
2022/03/03 02:14:43;;;;;;;;;;;8.90;92.40;;;;;;4991388;28;19989;-62
2022/03/03 02:17:08;;;;;;;;;;;8.90;91.20;;;;;;4991436;28;19918;-63
2022/03/03 02:19:34;;;;;;;;;;;8.90;90.90;;;;;;4991557;28;19917;-62
2022/03/03 02:22:00;;;;;;;;;;;8.90;90.80;;;;;;4990560;28;20008;-62
2022/03/03 02:24:25;;;;;;;;;;;8.90;91.10;;;;;;4991475;28;20017;-60
2022/03/03 02:26:51;;;;;;;;;;;8.90;90.80;;;;;;4990770;28;19917;-62
2022/03/03 02:29:17;;;;;;;;;;;8.90;91.40;;;;;;4991135;28;19909;-63
2022/03/03 02:31:44;;;;;;;;;;;8.90;91.60;;;;;;4991517;28;19921;-62
2022/03/03 02:34:10;;;;;;;;;;;9.00;91.20;;;;;;4991139;28;19913;-63
2022/03/03 02:36:36;;;;;;;;;;;9.00;91.30;;;;;;4990550;28;19922;-63
2022/03/03 02:39:03;;;;;;;;;;;9.00;91.40;;;;;;4991397;28;19917;-62
2022/03/03 02:41:29;;;;;;;;;;;9.00;91.40;;;;;;4991149;28;19914;-62
2022/03/03 02:43:55;;;;;;;;;;;9.00;92.00;;;;;;4991560;28;20363;-62
2022/03/03 02:46:20;;;;;;;;;;;9.00;93.30;;;;;;4994399;28;19998;-63
2022/03/03 02:48:46;;;;;;;;;;;9.10;91.60;;;;;;4995123;28;20398;-63
2022/03/03 02:51:12;;;;;;;;;;;9.10;91.80;;;;;;4994180;28;20383;-63
2022/03/03 02:53:38;;;;;;;;;;;9.10;91.80;;;;;;4995135;28;20000;-62
2022/03/03 02:56:04;;;;;;;;;;;9.10;91.90;;;;;;4995518;28;19913;-62
2022/03/03 02:58:29;;;;;;;;;;;9.00;92.50;;;;;;4994919;28;20291;-63
2022/03/03 03:00:55;;;;;;;;;;;9.00;92.50;;;;;;4994617;28;19914;-63
2022/03/03 03:03:21;;;;;;;;;;;9.00;92.20;;;;;;4994850;28;20449;-63
2022/03/03 03:05:46;;;;;;;;;;;9.00;92.70;;;;;;4994128;28;20318;-62
2022/03/03 03:08:12;;;;;;;;;;;9.00;92.80;;;;;;4994997;28;20359;-63
2022/03/03 03:10:39;;;;;;;;;;;9.00;92.50;;;;;;4995056;28;19956;-62
2022/03/03 03:13:05;;;;;;;;;;;9.10;92.10;;;;;;4994318;28;20004;-62
2022/03/03 03:15:31;;;;;;;;;;;9.10;92.60;;;;;;4994141;28;19969;-62
2022/03/03 03:18:08;;;;;;;;;;;9.10;93.30;;;;;;4994208;28;20012;-64
2022/03/03 03:20:33;;;;;;;;;;;9.10;92.70;;;;;;4978680;28;19924;-64
2022/03/03 03:22:59;;;;;;;;;;;9.10;92.80;;;;;;4994827;28;19910;-64
2022/03/03 03:25:24;;;;;;;;;;;9.10;93.00;;;;;;4994056;28;19921;-62
2022/03/03 03:27:50;;;;;;;;;;;9.10;92.80;;;;;;4994595;28;20045;-64
2022/03/03 03:30:15;;;;;;;;;;;9.10;92.70;;;;;;4994143;28;19941;-64
2022/03/03 03:32:41;;;;;;;;;;;9.10;93.20;;;;;;5008702;28;19914;-63
2022/03/03 03:35:07;;;;;;;;;;;9.20;92.90;;;;;;4994416;28;19996;-64
2022/03/03 03:37:32;;;;;;;;;;;9.20;92.90;;;;;;4994249;28;19929;-61
2022/03/03 03:39:58;;;;;;;;;;;9.20;93.40;;;;;;4994300;28;19918;-63
2022/03/03 03:42:24;;;;;;;;;;;9.20;93.00;;;;;;4993900;28;20343;-62
2022/03/03 03:44:49;;;;;;;;;;;9.20;93.20;;;;;;4993804;28;19913;-63
2022/03/03 03:47:15;;;;;;;;;;;9.20;93.40;;;;;;4994186;28;19916;-61
2022/03/03 03:49:40;;;;;;;;;;;9.30;93.50;;;;;;4994256;28;19993;-63
2022/03/03 03:52:06;;;;;;;;;;;9.20;93.10;;;;;;4993549;28;19945;-63
2022/03/03 03:54:32;;;;;;;;;;;9.30;93.40;;;;;;4993592;28;19922;-63
2022/03/03 03:56:57;;;;;;;;;;;9.30;94.00;;;;;;4992681;28;19929;-62
2022/03/03 03:59:23;;;;;;;;;;;9.20;93.60;;;;;;4993691;28;19914;-62
2022/03/03 04:01:49;;;;;;;;;;;9.30;93.60;;;;;;4994145;28;19959;-62
2022/03/03 04:04:14;;;;;;;;;;;9.30;94.00;;;;;;4992939;28;20016;-63
2022/03/03 04:06:40;;;;;;;;;;;9.30;93.60;;;;;;4993711;28;20294;-62
2022/03/03 04:09:06;;;;;;;;;;;9.30;93.90;;;;;;4993537;28;20390;-61
2022/03/03 04:11:31;;;;;;;;;;;9.30;93.70;;;;;;4993609;28;19957;-63
2022/03/03 04:13:57;;;;;;;;;;;9.30;93.90;;;;;;4994222;28;19910;-62
2022/03/03 04:16:23;;;;;;;;;;;9.30;93.90;;;;;;4992864;28;20375;-63
2022/03/03 04:18:48;;;;;;;;;;;9.30;94.20;;;;;;4992986;28;20284;-62
2022/03/03 04:21:14;;;;;;;;;;;9.40;94.10;;;;;;4993252;28;20383;-63
2022/03/03 04:23:39;;;;;;;;;;;9.40;93.90;;;;;;4993233;28;20371;-61
2022/03/03 04:26:05;;;;;;;;;;;9.40;94.40;;;;;;4993732;28;19972;-62
2022/03/03 04:28:31;;;;;;;;;;;9.40;95.00;;;;;;4993219;28;19918;-63
2022/03/03 04:30:56;;;;;;;;;;;9.40;94.80;;;;;;4991351;28;19921;-63
2022/03/03 04:33:22;;;;;;;;;;;9.40;94.60;;;;;;4992312;28;19918;-63
2022/03/03 04:35:47;;;;;;;;;;;9.40;94.80;;;;;;4992790;28;19980;-62
2022/03/03 04:38:13;;;;;;;;;;;9.40;95.20;;;;;;4993030;28;19914;-63
2022/03/03 04:40:38;;;;;;;;;;;9.40;95.70;;;;;;4993318;28;19916;-63
2022/03/03 04:43:04;;;;;;;;;;;9.40;95.20;;;;;;4992703;28;19914;-62
2022/03/03 04:45:29;;;;;;;;;;;9.40;96.50;;;;;;4992660;28;19914;-63
2022/03/03 04:47:55;;;;;;;;;;;9.40;96.40;;;;;;4992319;28;19977;-62
2022/03/03 04:50:20;;;;;;;;;;;9.40;96.40;;;;;;4992900;28;19910;-62
2022/03/03 04:52:46;;;;;;;;;;;9.40;96.90;;;;;;4993029;28;19925;-61
2022/03/03 04:55:12;;;;;;;;;;;9.40;96.60;;;;;;4992464;28;20402;-62
2022/03/03 04:57:37;;;;;;;;;;;9.40;96.40;;;;;;4992968;28;19918;-63
2022/03/03 05:00:05;;;;;;;;;;;9.50;97.60;;;;;;4992176;28;20052;-62
2022/03/03 05:02:30;;;;;;;;;;;9.50;97.10;;;;;;4992063;28;20047;-61
2022/03/03 05:04:56;;;;;;;;;;;9.40;97.90;;;;;;4992925;28;20445;-62
2022/03/03 05:07:21;;;;;;;;;;;9.40;98.30;;;;;;4990865;28;20005;-63
2022/03/03 05:09:47;;;;;;;;;;;9.40;98.20;;;;;;4992169;28;19965;-61
2022/03/03 05:12:13;;;;;;;;;;;9.40;98.20;;;;;;4991970;28;20562;-62
2022/03/03 05:14:38;;;;;;;;;;;9.40;98.50;;;;;;4992400;28;19920;-62
2022/03/03 05:17:04;;;;;;;;;;;9.40;97.80;;;;;;4992103;28;19933;-60
2022/03/03 05:19:29;;;;;;;;;;;9.50;98.30;;;;;;4991978;28;19910;-63
2022/03/03 05:21:55;;;;;;;;;;;9.50;98.90;;;;;;4991925;28;19968;-63
2022/03/03 05:24:20;;;;;;;;;;;9.50;99.00;;;;;;4992151;28;19965;-61
2022/03/03 05:26:46;;;;;;;;;;;9.50;98.40;;;;;;4992102;28;20009;-62
2022/03/03 05:29:11;;;;;;;;;;;9.50;98.70;;;;;;4991932;28;19914;-62
2022/03/03 05:31:37;;;;;;;;;;;9.50;99.10;;;;;;4991750;28;19925;-61
2022/03/03 05:34:03;;;;;;;;;;;9.50;99.90;;;;;;4991858;28;19918;-62
2022/03/03 05:36:30;;;;;;;;;;;9.50;99.90;;;;;;4991235;28;20471;-62
2022/03/03 05:38:57;;;;;;;;;;;9.50;99.70;;;;;;4990169;28;20272;-63
2022/03/03 05:41:22;;;;;;;;;;;9.50;99.80;;;;;;4992017;28;20375;-61
2022/03/03 05:43:48;;;;;;;;;;;9.50;99.10;;;;;;4992202;28;19910;-60
2022/03/03 05:46:14;;;;;;;;;;;9.50;99.70;;;;;;4991478;28;19949;-63
2022/03/03 05:48:40;;;;;;;;;;;9.50;99.90;;;;;;4991373;28;19918;-60
2022/03/03 05:51:05;;;;;;;;;;;9.60;99.90;;;;;;4991623;28;19913;-62
2022/03/03 05:53:30;;;;;;;;;;;9.50;99.80;;;;;;4991668;28;20327;-64
2022/03/03 05:55:57;;;;;;;;;;;9.50;99.80;;;;;;4991373;28;19996;-63
2022/03/03 05:58:25;;;;;;;;;;;9.60;99.70;;;;;;4990615;28;19944;-63
2022/03/03 06:00:53;;;;;;;;;;;9.50;99.90;;;;;;4990083;28;19918;-63
2022/03/03 06:03:20;;;;;;;;;;;9.60;99.90;;;;;;4989672;28;20391;-62
2022/03/03 06:05:49;;;;;;;;;;;9.50;99.90;;;;;;4990579;28;20268;-62
2022/03/03 06:08:20;;;;;;;;;;;9.50;99.90;;;;;;4990848;28;20314;-63
2022/03/03 06:10:50;;;;;;;;;;;9.50;99.90;;;;;;4990788;28;19949;-63
2022/03/03 06:13:20;;;;;;;;;;;9.50;99.90;;;;;;5005477;28;20370;-62
2022/03/03 06:15:46;;;;;;;;;;;9.60;99.90;;;;;;5005386;28;19914;-62
2022/03/03 06:18:12;;;;;;;;;;;9.60;99.90;;;;;;4990676;28;19925;-64
2022/03/03 06:20:39;;;;;;;;;;;9.60;99.90;;;;;;4989338;28;19913;-62
2022/03/03 06:23:05;;;;;;;;;;;9.60;99.90;;;;;;4991133;28;19917;-62
2022/03/03 06:25:30;;;;;;;;;;;9.60;99.90;;;;;;4990886;28;19929;-65
2022/03/03 06:27:56;;;;;;;;;;;9.60;99.90;;;;;;4990244;28;20000;-63
2022/03/03 06:30:22;;;;;;;;;;;9.50;99.90;;;;;;4990096;28;19922;-64
2022/03/03 06:32:47;;;;;;;;;;;9.60;99.90;;;;;;5005293;28;19953;-63
2022/03/03 06:35:13;;;;;;;;;;;9.60;99.90;;;;;;4991197;28;19917;-64
2022/03/03 06:37:38;;;;;;;;;;;9.60;99.90;;;;;;4990878;28;19933;-65
2022/03/03 06:40:04;;;;;;;;;;;9.60;99.90;;;;;;4990308;28;19909;-63
2022/03/03 06:42:30;;;;;;;;;;;9.60;99.90;;;;;;4990072;28;20369;-63
2022/03/03 06:44:55;;;;;;;;;;;9.60;99.90;;;;;;4990043;28;19914;-62
2022/03/03 06:47:21;;;;;;;;;;;9.60;99.90;;;;;;4989711;28;19917;-61
2022/03/03 06:49:47;;;;;;;;;;;9.60;99.90;;;;;;4988971;28;19997;-64
2022/03/03 06:52:14;;;;;;;;;;;9.60;99.90;;;;;;4990238;28;19997;-60
2022/03/03 06:54:42;;;;;;;;;;;9.60;99.90;;;;;;4990301;28;19921;-65
2022/03/03 06:57:08;;;;;;;;;;;9.60;99.90;;;;;;4990166;28;20375;-63
2022/03/03 06:59:37;;;;;;;;;;;9.60;99.90;;;;;;4990592;28;20653;-61
2022/03/03 07:02:03;;;;;;;;;;;9.70;99.90;;;;;;4991721;28;19913;-65
2022/03/03 07:04:29;;;;;;;;;;;9.70;99.90;;;;;;4990463;28;19917;-65
2022/03/03 07:06:55;;;;;;;;;;;9.80;99.90;;;;;;4990464;28;19921;-65
2022/03/03 07:09:20;;;;;;;;;;;9.80;99.90;;;;;;4990564;28;19910;-65
2022/03/03 07:11:47;;;;;;;;;;;9.80;99.90;;;;;;4990020;28;20402;-66
2022/03/03 07:14:12;;;;;;;;;;;9.80;99.90;;;;;;4985600;28;19913;-65
2022/03/03 07:16:42;;;;;;;;;;;9.90;99.90;;;;;;4982513;28;20470;-65
2022/03/03 07:19:14;;;;;;;;;;;9.90;99.90;;;;;;4981849;28;19951;-65
2022/03/03 07:21:57;;;;;;;;;;;9.90;99.90;;;;;;4986904;28;19924;-64
2022/03/03 07:24:28;;;;;;;;;;;9.90;99.90;;;;;;4990193;28;19984;-66
2022/03/03 07:26:57;;;;;;;;;;;10.00;99.90;;;;;;4990298;28;19920;-65
2022/03/03 07:29:25;;;;;;;;;;;10.00;99.90;;;;;;4990553;28;19921;-64
2022/03/03 07:31:55;;;;;;;;;;;10.00;99.90;;;;;;4984736;28;19922;-65
2022/03/03 07:34:26;;;;;;;;;;;10.00;99.90;;;;;;4992107;28;19968;-64
2022/03/03 07:36:52;;;;;;;;;;;10.10;99.90;;;;;;4993734;28;20406;-66
2022/03/03 07:39:19;;;;;;;;;;;10.10;99.90;;;;;;4980187;28;20350;-65
2022/03/03 07:41:45;;;;;;;;;;;10.10;99.90;;;;;;4993548;28;19940;-65
2022/03/03 07:44:11;;;;;;;;;;;10.20;99.90;;;;;;4993882;28;19917;-66
2022/03/03 07:46:37;;;;;;;;;;;10.20;99.90;;;;;;4994432;28;19910;-65
2022/03/03 07:49:02;;;;;;;;;;;10.20;99.90;;;;;;4993918;28;19918;-65
2022/03/03 07:51:28;;;;;;;;;;;10.30;99.90;;;;;;4993918;28;19914;-66
2022/03/03 07:53:53;;;;;;;;;;;10.30;99.90;;;;;;4993429;28;19914;-65
2022/03/03 07:56:33;;;;;;;;;;;10.30;99.90;;;;;;4993291;28;19922;-66
2022/03/03 07:59:02;;;;;;;;;;;10.40;99.90;;;;;;4994163;28;20063;-65
2022/03/03 08:01:29;;;;;;;;;;;10.30;99.90;;;;;;4993922;28;19913;-66
2022/03/03 08:03:56;;;;;;;;;;;10.40;99.90;;;;;;4992164;28;19918;-65
2022/03/03 08:06:23;;;;;;;;;;;10.40;99.90;;;;;;4993467;28;19913;-66
2022/03/03 08:08:48;;;;;;;;;;;10.40;99.90;;;;;;4993220;28;19921;-66
2022/03/03 08:11:16;;;;;;;;;;;10.50;99.90;;;;;;4993208;28;19913;-67
2022/03/03 08:13:42;;;;;;;;;;;10.50;99.90;;;;;;4994197;28;19910;-66
2022/03/03 08:16:08;;;;;;;;;;;10.50;99.90;;;;;;4993334;28;20261;-66
2022/03/03 08:18:37;;;;;;;;;;;10.50;99.90;;;;;;4993087;28;19921;-67
2022/03/03 08:21:06;;;;;;;;;;;10.50;99.90;;;;;;4993148;28;20314;-67
2022/03/03 08:23:32;;;;;;;;;;;10.60;99.90;;;;;;4993030;28;20355;-68
2022/03/03 08:25:58;;;;;;;;;;;10.70;99.90;;;;;;4993863;28;19910;-67
2022/03/03 08:28:24;;;;;;;;;;;10.70;99.90;;;;;;4992840;28;19924;-67
2022/03/03 08:31:00;;;;;;;;;;;10.70;99.90;;;;;;4992921;28;20276;-67
2022/03/03 08:33:39;;;;;;;;;;;10.80;99.90;;;;;;4992717;28;19920;-66
2022/03/03 08:36:08;;;;;;;;;;;10.80;99.90;;;;;;4992837;28;19917;-67
2022/03/03 08:38:35;;;;;;;;;;;10.90;99.90;;;;;;4992286;28;20007;-67
2022/03/03 08:41:03;;;;;;;;;;;11.00;99.90;;;;;;4994069;28;19917;-67
2022/03/03 08:43:30;;;;;;;;;;;11.00;99.90;;;;;;4991807;28;19948;-68
2022/03/03 08:46:02;;;;;;;;;;;11.00;99.90;;;;;;4993233;28;19917;-67
2022/03/03 08:48:30;;;;;;;;;;;11.10;99.90;;;;;;4992472;28;20342;-65
2022/03/03 08:50:57;;;;;;;;;;;11.20;99.90;;;;;;4992805;28;19917;-66
2022/03/03 08:53:22;;;;;;;;;;;11.30;99.90;;;;;;4991926;28;19937;-67
2022/03/03 08:55:48;;;;;;;;;;;11.30;99.90;;;;;;4993643;28;20351;-67
2022/03/03 08:58:14;;;;;;;;;;;11.30;99.90;;;;;;4992269;28;19977;-67
2022/03/03 09:00:40;;;;;;;;;;;11.30;99.90;;;;;;4992306;28;19914;-67
2022/03/03 09:03:06;;;;;;;;;;;11.30;99.90;;;;;;4992513;28;19948;-66
2022/03/03 09:05:32;;;;;;;;;;;11.30;99.90;;;;;;4992571;28;19945;-66
2022/03/03 09:07:57;;;;;;;;;;;11.40;99.90;;;;;;4992520;28;19917;-66
2022/03/03 09:10:23;;;;;;;;;;;11.40;99.90;;;;;;4992195;28;19941;-67
2022/03/03 09:12:49;;;;;;;;;;;11.50;99.90;;;;;;4992379;28;19914;-67
2022/03/03 09:15:15;;;;;;;;;;;11.60;99.90;;;;;;4992081;28;19914;-67
2022/03/03 09:17:41;;;;;;;;;;;11.60;99.90;;;;;;4992082;28;20008;-66
2022/03/03 09:20:08;;;;;;;;;;;11.70;99.90;;;;;;4993234;28;19910;-66
2022/03/03 09:22:33;;;;;;;;;;;11.70;99.90;;;;;;4991771;28;19960;-66
2022/03/03 09:24:59;;;;;;;;;;;11.80;99.90;;;;;;4991935;28;19914;-65
2022/03/03 09:27:25;;;;;;;;;;;11.80;99.90;;;;;;4992226;28;19914;-62
2022/03/03 09:29:50;;;;;;;;;;;11.80;99.90;;;;;;4991931;28;20243;-66
2022/03/03 09:32:16;;;;;;;;;;;11.90;99.90;;;;;;4991960;28;20003;-65
2022/03/03 09:34:44;;;;;;;;;;;11.90;99.90;;;;;;4992302;28;20406;-64
2022/03/03 09:37:11;;;;;;;;;;;12.00;99.90;;;;;;4991665;28;20418;-66
2022/03/03 09:39:36;;;;;;;;;;;12.00;99.90;;;;;;4991693;28;19914;-65
2022/03/03 09:42:02;;;;;;;;;;;12.10;99.90;;;;;;4991831;28;19921;-65
2022/03/03 09:44:28;;;;;;;;;;;12.10;99.90;;;;;;4991748;28;19968;-65
2022/03/03 09:46:55;;;;;;;;;;;12.10;99.90;;;;;;4992585;28;19941;-66
2022/03/03 09:49:20;;;;;;;;;;;12.20;99.90;;;;;;4991449;28;20020;-65
2022/03/03 09:51:47;;;;;;;;;;;12.20;99.90;;;;;;4991096;28;20379;-65
2022/03/03 09:54:13;;;;;;;;;;;12.30;99.90;;;;;;4991131;28;20286;-64
2022/03/03 09:56:39;;;;;;;;;;;12.40;99.90;;;;;;4991575;28;19921;-64
2022/03/03 09:59:04;;;;;;;;;;;12.50;99.90;;;;;;5007720;28;20001;-66
2022/03/03 10:01:30;;;;;;;;;;;12.50;99.90;;;;;;4991379;28;19917;-63
2022/03/03 10:04:15;;;;;;;;;;;12.50;99.90;;;;;;4991154;28;19914;-65
2022/03/03 10:06:41;;;;;;;;;;;12.60;99.90;;;;;;5006189;28;19988;-65
2022/03/03 10:09:07;;;;;;;;;;;12.50;99.90;;;;;;4991323;28;19914;-64
2022/03/03 10:11:38;;;;;;;;;;;12.60;99.90;;;;;;4991427;28;19921;-67
2022/03/03 10:14:03;;;;;;;;;;;12.60;99.90;;;;;;4992048;28;20438;-65
2022/03/03 10:16:31;;;;;;;;;;;12.70;99.90;;;;;;4990814;28;20016;-63
2022/03/03 10:18:59;;;;;;;;;;;12.70;99.90;;;;;;4991003;28;20004;-64
2022/03/03 10:21:26;;;;;;;;;;;12.80;99.90;;;;;;4991363;28;19999;-65
2022/03/03 10:23:51;;;;;;;;;;;12.80;99.90;;;;;;4991144;28;19914;-65
2022/03/03 10:26:17;;;;;;;;;;;12.80;99.90;;;;;;4991303;28;19910;-65
2022/03/03 10:28:46;;;;;;;;;;;12.80;99.90;;;;;;4991646;28;20377;-65
2022/03/03 10:31:22;;;;;;;;;;;12.80;99.90;;;;;;4990531;28;19921;-65
2022/03/03 10:33:49;;;;;;;;;;;12.90;99.90;;;;;;4991073;28;19914;-65
2022/03/03 10:36:19;;;;;;;;;;;13.00;99.90;;;;;;4990989;28;19914;-65
2022/03/03 10:38:46;;;;;;;;;;;13.00;99.90;;;;;;4991186;28;19914;-65
2022/03/03 10:41:31;;;;;;;;;;;13.10;99.90;;;;;;4991201;28;19964;-66
2022/03/03 10:43:56;;;;;;;;;;;13.10;99.90;;;;;;4991861;28;19957;-66
2022/03/03 10:46:22;;;;;;;;;;;13.10;99.90;;;;;;4990804;28;19918;-66
2022/03/03 10:48:47;;;;;;;;;;;13.10;99.90;;;;;;4990552;28;19960;-66
2022/03/03 10:51:16;;;;;;;;;;;13.30;99.90;;;;;;4990656;28;19961;-63
2022/03/03 10:53:45;;;;;;;;;;;13.30;99.90;;;;;;4990659;28;19914;-63
2022/03/03 10:56:14;;;;;;;;;;;13.30;99.90;;;;;;4987959;28;20371;-65
2022/03/03 10:58:49;;;;;;;;;;;13.30;99.90;;;;;;4989062;28;19968;-65
2022/03/03 11:01:15;;;;;;;;;;;13.30;99.90;;;;;;4977934;28;19939;-65
2022/03/03 11:03:49;;;;;;;;;;;13.20;99.90;;;;;;4988274;28;19914;-65
2022/03/03 11:06:15;;;;;;;;;;;13.10;99.90;;;;;;4989850;28;19921;-66
2022/03/03 11:08:41;;;;;;;;;;;13.10;99.90;;;;;;4991813;28;19914;-65
2022/03/03 11:11:06;;;;;;;;;;;13.10;99.90;;;;;;4992087;28;19920;-66
2022/03/03 11:13:32;;;;;;;;;;;13.10;99.90;;;;;;4993826;28;20370;-66
2022/03/03 11:15:58;;;;;;;;;;;13.00;99.90;;;;;;4992225;28;20005;-64
2022/03/03 11:18:24;;;;;;;;;;;13.00;99.90;;;;;;4991599;28;19929;-67
2022/03/03 11:20:49;;;;;;;;;;;13.10;99.90;;;;;;4992317;28;19913;-65
2022/03/03 11:23:15;;;;;;;;;;;13.10;99.90;;;;;;4992734;28;20454;-66
2022/03/03 11:25:41;;;;;;;;;;;13.10;99.90;;;;;;4991962;28;19921;-67
2022/03/03 11:28:13;;;;;;;;;;;13.20;99.90;;;;;;4991971;28;19913;-64
2022/03/03 11:30:38;;;;;;;;;;;13.30;99.90;;;;;;4991287;28;20413;-66
2022/03/03 11:33:23;;;;;;;;;;;13.40;99.90;;;;;;4991286;28;19918;-65
2022/03/03 11:35:52;;;;;;;;;;;13.40;99.90;;;;;;4990309;28;20280;-65
2022/03/03 11:38:19;;;;;;;;;;;13.40;99.90;;;;;;4991726;28;19932;-64
2022/03/03 11:40:55;;;;;;;;;;;13.40;99.90;;;;;;4992368;28;20402;-63
2022/03/03 11:43:21;;;;;;;;;;;13.50;99.90;;;;;;4989633;28;19957;-65
2022/03/03 11:45:51;;;;;;;;;;;13.60;99.90;;;;;;4991901;28;20008;-63
2022/03/03 11:48:19;;;;;;;;;;;13.70;99.90;;;;;;4991133;28;19914;-66
2022/03/03 11:50:45;;;;;;;;;;;13.80;99.90;;;;;;4991600;28;19914;-62
2022/03/03 11:53:10;;;;;;;;;;;13.90;99.90;;;;;;4991927;28;19937;-65
2022/03/03 11:55:36;;;;;;;;;;;13.90;99.90;;;;;;4991699;28;20470;-64
2022/03/03 11:58:02;;;;;;;;;;;14.00;99.90;;;;;;4991442;28;19921;-64
2022/03/03 12:00:28;;;;;;;;;;;14.00;99.90;;;;;;4990274;28;20009;-65
2022/03/03 12:02:55;;;;;;;;;;;14.10;99.90;;;;;;4989928;28;19918;-66
2022/03/03 12:05:26;;;;;;;;;;;14.20;99.90;;;;;;4988897;28;20390;-66
2022/03/03 12:07:55;;;;;;;;;;;14.20;99.90;;;;;;4991554;28;20391;-65
2022/03/03 12:10:20;;;;;;;;;;;14.20;99.90;;;;;;4990235;28;20379;-63
2022/03/03 12:12:46;;;;;;;;;;;14.20;99.90;;;;;;4990575;28;20051;-64
2022/03/03 12:15:11;;;;;;;;;;;14.10;99.90;;;;;;4988687;28;19913;-65
2022/03/03 12:17:52;;;;;;;;;;;14.10;99.90;;;;;;4987573;28;19967;-65
2022/03/03 12:20:23;;;;;;;;;;;14.20;99.90;;;;;;4979708;28;19924;-66
2022/03/03 12:22:58;;;;;;;;;;;14.30;99.90;;;;;;4987513;28;19972;-64
2022/03/03 12:25:42;;;;;;;;;;;14.30;99.90;;;;;;4993984;28;19980;-66
2022/03/03 12:28:14;;;;;;;;;;;14.40;99.90;;;;;;4993695;28;19914;-65
2022/03/03 12:30:43;;;;;;;;;;;14.30;99.90;;;;;;4994772;28;19921;-63
2022/03/03 12:33:18;;;;;;;;;;;14.40;99.90;;;;;;4993799;28;19924;-63
2022/03/03 12:35:44;;;;;;;;;;;14.30;99.90;;;;;;4979097;28;19922;-65
2022/03/03 12:38:11;;;;;;;;;;;14.30;99.90;;;;;;4993020;28;20326;-65
2022/03/03 12:40:36;;;;;;;;;;;14.30;99.90;;;;;;4993583;28;19937;-63
2022/03/03 12:43:02;;;;;;;;;;;14.30;99.90;;;;;;4993794;28;19918;-65
2022/03/03 12:45:29;;;;;;;;;;;14.40;99.90;;;;;;4991953;28;20302;-64
2022/03/03 12:47:55;;;;;;;;;;;14.40;99.90;;;;;;4992568;28;20437;-62
2022/03/03 12:50:26;;;;;;;;;;;14.40;99.90;;;;;;4992359;28;19910;-65
2022/03/03 12:52:55;;;;;;;;;;;14.40;99.90;;;;;;4990839;28;19917;-65
2022/03/03 12:55:25;;;;;;;;;;;14.30;99.90;;;;;;4992264;28;19952;-66
2022/03/03 12:57:51;;;;;;;;;;;14.40;99.90;;;;;;4992614;28;20450;-65
2022/03/03 13:00:17;;;;;;;;;;;14.40;99.90;;;;;;4991632;28;19997;-65
2022/03/03 13:02:52;;;;;;;;;;;14.40;99.90;;;;;;4992057;28;19913;-64
2022/03/03 13:05:31;;;;;;;;;;;14.40;99.90;;;;;;4991891;28;20390;-64
2022/03/03 13:07:57;;;;;;;;;;;14.30;99.90;;;;;;4991485;28;19906;-64
2022/03/03 13:10:22;;;;;;;;;;;14.30;99.90;;;;;;4992099;28;19914;-66
2022/03/03 13:12:48;;;;;;;;;;;14.20;99.90;;;;;;4991492;28;20371;-65
2022/03/03 13:15:13;;;;;;;;;;;14.20;99.90;;;;;;4991152;28;20390;-64
2022/03/03 13:17:55;;;;;;;;;;;14.20;99.90;;;;;;4991806;28;19954;-64
2022/03/03 13:20:20;;;;;;;;;;;14.20;99.90;;;;;;4989808;28;20446;-64
2022/03/03 13:22:46;;;;;;;;;;;14.10;99.90;;;;;;4992204;28;19989;-65
2022/03/03 13:25:18;;;;;;;;;;;14.10;99.90;;;;;;4991372;28;19914;-63
2022/03/03 13:27:48;;;;;;;;;;;14.10;99.90;;;;;;4991220;28;19914;-64
2022/03/03 13:30:14;;;;;;;;;;;14.10;99.90;;;;;;4990536;28;20425;-64
2022/03/03 13:32:46;;;;;;;;;;;14.10;99.90;;;;;;4991517;28;19913;-64
2022/03/03 13:35:11;;;;;;;;;;;14.00;99.80;;;;;;4988851;28;19920;-66
2022/03/03 13:37:37;;;;;;;;;;;14.00;99.60;;;;;;4991078;28;20001;-65
2022/03/03 13:40:17;;;;;;;;;;;13.90;99.80;;;;;;4991194;28;19949;-64
2022/03/03 13:42:43;;;;;;;;;;;13.90;99.90;;;;;;4990580;28;19913;-62
2022/03/03 13:45:08;;;;;;;;;;;13.90;99.90;;;;;;4985303;28;19917;-62
2022/03/03 13:47:39;;;;;;;;;;;13.90;99.90;;;;;;4988165;28;19924;-64
2022/03/03 13:50:06;;;;;;;;;;;13.90;99.90;;;;;;4989931;28;20176;-65
2022/03/03 13:52:35;;;;;;;;;;;13.90;99.90;;;;;;4990483;28;19913;-66
2022/03/03 13:55:22;;;;;;;;;;;13.80;99.90;;;;;;4989656;28;20298;-64
2022/03/03 13:57:48;;;;;;;;;;;13.80;99.90;;;;;;4990036;28;19921;-66
2022/03/03 14:00:27;;;;;;;;;;;13.80;99.90;;;;;;4990602;28;20000;-66
2022/03/03 14:03:00;;;;;;;;;;;13.80;99.90;;;;;;4987791;28;19918;-64
2022/03/03 14:05:31;;;;;;;;;;;13.90;99.90;;;;;;4991069;28;20007;-65
2022/03/03 14:07:56;;;;;;;;;;;13.90;99.90;;;;;;4989462;28;19996;-66
2022/03/03 14:10:22;;;;;;;;;;;13.80;99.90;;;;;;4990316;28;19957;-65
2022/03/03 14:13:04;;;;;;;;;;;13.70;99.90;;;;;;4988707;28;19960;-65
2022/03/03 14:15:29;;;;;;;;;;;13.70;99.90;;;;;;4990113;28;20282;-65
2022/03/03 14:17:55;;;;;;;;;;;13.70;99.90;;;;;;4990114;28;19922;-66
2022/03/03 14:20:21;;;;;;;;;;;13.70;99.90;;;;;;4989590;28;19968;-64
2022/03/03 14:22:56;;;;;;;;;;;13.70;99.90;;;;;;4986491;28;19981;-65